Terminal Aerodrome Forecast
Issued by NWS Wilmington, OH

Current Version | Previous Version | Text Only | Print | Product List | Glossary Off
Versions: 1 2 3 4 5 6 7 8 9 10 11 12 13 14 15 16 17 18 19 20 21 22 23 24 25 26 27 28 29 30 31 32 33

000
FTUS41 KILN 281800 AAA
TAFCVG
TAF AMD
KCVG 281842Z 2819/2924 31012KT P6SM VCSH BKN035
     FM282300 33007KT P6SM SCT035
     FM290900 33005KT P6SM BKN035
     FM291400 28008KT P6SM SCT040=

USA.gov is the U.S. government's official web portal to all federal, state and local government web resources and services.